createdAt,value
2019-05-11T00:00:38.252Z,5.02
2019-05-11T00:03:06.679Z,5.00
2019-05-11T00:05:35.134Z,5.00
2019-05-11T00:08:03.897Z,5.01
2019-05-11T00:10:32.342Z,5.00
2019-05-11T00:13:00.765Z,4.99
2019-05-11T00:15:29.222Z,4.98
2019-05-11T00:17:57.705Z,4.96
2019-05-11T00:20:26.133Z,4.94
2019-05-11T00:22:54.842Z,4.93
2019-05-11T00:25:23.304Z,4.91
2019-05-11T00:27:51.950Z,4.87
2019-05-11T00:30:20.381Z,4.83
2019-05-11T00:32:48.823Z,4.81
2019-05-11T00:35:17.383Z,4.79
2019-05-11T00:37:46.618Z,4.78
2019-05-11T00:40:15.297Z,4.76
2019-05-11T00:42:44.044Z,4.74
2019-05-11T00:45:12.553Z,4.74
2019-05-11T00:47:40.989Z,4.74
2019-05-11T00:50:09.866Z,4.71
2019-05-11T00:52:38.291Z,4.70
2019-05-11T00:55:07.585Z,4.67
2019-05-11T00:57:36.012Z,4.66
2019-05-11T01:00:06.800Z,4.64
2019-05-11T01:02:35.345Z,4.62
2019-05-11T01:05:04.649Z,4.59
2019-05-11T01:07:33.088Z,4.59
2019-05-11T01:10:01.543Z,4.57
2019-05-11T01:12:29.963Z,4.54
2019-05-11T01:14:58.400Z,4.52
2019-05-11T01:17:27.002Z,4.52
2019-05-11T01:19:55.668Z,4.50
2019-05-11T01:22:24.096Z,4.48
2019-05-11T01:24:52.544Z,4.48
2019-05-11T01:27:21.022Z,4.44
2019-05-11T01:29:49.449Z,4.43
2019-05-11T01:32:17.887Z,4.42
2019-05-11T01:34:46.305Z,4.39
2019-05-11T01:37:14.744Z,4.37
2019-05-11T01:39:43.191Z,4.33
2019-05-11T01:42:12.011Z,4.30
2019-05-11T01:44:40.439Z,4.27
2019-05-11T01:47:08.861Z,4.23
2019-05-11T01:49:37.292Z,4.20
2019-05-11T01:52:05.720Z,4.18
2019-05-11T01:54:34.192Z,4.14
2019-05-11T01:57:02.964Z,4.12
2019-05-11T01:59:31.388Z,4.08
2019-05-11T02:01:59.818Z,4.07
2019-05-11T02:04:28.243Z,4.06
2019-05-11T02:06:56.696Z,4.04
2019-05-11T02:09:25.167Z,4.02
2019-05-11T02:11:53.587Z,4.04
2019-05-11T02:14:22.273Z,4.03
2019-05-11T02:16:50.719Z,4.03
2019-05-11T02:19:19.155Z,4.00
2019-05-11T02:21:47.845Z,4.00
2019-05-11T02:24:16.275Z,3.98
2019-05-11T02:26:44.707Z,3.96
2019-05-11T02:29:13.132Z,3.94
2019-05-11T02:31:41.723Z,3.94
2019-05-11T02:34:10.161Z,3.91
2019-05-11T02:36:38.593Z,3.88
2019-05-11T02:39:07.965Z,3.86
2019-05-11T02:41:37.699Z,3.87
2019-05-11T02:44:06.422Z,3.86
2019-05-11T02:46:34.897Z,3.85
2019-05-11T02:49:03.502Z,3.87
2019-05-11T02:51:32.297Z,3.40
2019-05-11T02:54:02.277Z,3.84
2019-05-11T02:56:30.732Z,3.87
2019-05-11T02:58:59.319Z,3.90
2019-05-11T03:01:27.732Z,3.89
2019-05-11T03:03:56.167Z,3.91
2019-05-11T03:06:24.803Z,3.94
2019-05-11T03:08:53.195Z,3.95
2019-05-11T03:11:21.656Z,3.97
2019-05-11T03:13:50.073Z,3.99
2019-05-11T03:16:18.507Z,4.01
2019-05-11T03:18:46.954Z,4.02
2019-05-11T03:21:15.618Z,4.02
2019-05-11T03:23:44.140Z,4.01
2019-05-11T03:26:12.570Z,3.97
2019-05-11T03:28:41.037Z,3.97
2019-05-11T03:31:09.508Z,3.96
2019-05-11T03:33:38.029Z,3.93
2019-05-11T03:36:07.561Z,3.89
2019-05-11T03:38:35.987Z,3.87
2019-05-11T03:41:04.422Z,3.85
2019-05-11T03:43:32.841Z,3.84
2019-05-11T03:46:01.265Z,3.85
2019-05-11T03:48:29.701Z,3.83
2019-05-11T03:50:58.139Z,3.84
2019-05-11T03:53:26.629Z,3.84
2019-05-11T03:55:55.043Z,3.84
2019-05-11T03:58:26.146Z,3.82
2019-05-11T04:00:53.677Z,3.82
2019-05-11T04:03:22.073Z,3.81
2019-05-11T04:05:50.510Z,3.81
2019-05-11T04:08:18.940Z,3.81
2019-05-11T04:10:47.359Z,3.81
2019-05-11T04:13:15.807Z,3.80
2019-05-11T04:15:44.222Z,3.82
2019-05-11T04:18:12.685Z,3.85
2019-05-11T04:20:42.400Z,3.89
2019-05-11T04:23:10.171Z,3.91
2019-05-11T04:25:38.536Z,4.18
2019-05-11T04:28:07.015Z,4.04
2019-05-11T04:30:35.384Z,4.12
2019-05-11T04:33:03.810Z,4.21
2019-05-11T04:35:32.241Z,4.31
2019-05-11T04:38:00.676Z,4.41
2019-05-11T04:40:29.679Z,4.54
2019-05-11T04:42:58.109Z,4.64
2019-05-11T04:45:26.528Z,4.76
2019-05-11T04:47:54.997Z,4.85
2019-05-11T04:50:23.422Z,4.94
2019-05-11T04:52:52.020Z,5.02
2019-05-11T04:55:20.468Z,5.09
2019-05-11T04:57:48.912Z,5.15
2019-05-11T05:00:17.867Z,5.22
2019-05-11T05:02:47.024Z,5.28
2019-05-11T05:05:15.450Z,5.38
2019-05-11T05:07:49.063Z,5.45
2019-05-11T05:10:19.669Z,5.55
2019-05-11T05:12:50.784Z,5.65
2019-05-11T05:15:14.557Z,5.76
2019-05-11T05:17:43.052Z,5.86
2019-05-11T05:20:12.412Z,5.97
2019-05-11T05:22:40.916Z,6.06
2019-05-11T05:25:09.442Z,6.16
2019-05-11T05:27:38.213Z,6.25
2019-05-11T05:30:07.379Z,6.33
2019-05-11T05:32:36.000Z,6.42
2019-05-11T05:35:06.388Z,6.50
2019-05-11T05:37:34.805Z,6.57
2019-05-11T05:40:03.403Z,6.64
2019-05-11T05:42:31.858Z,6.70
2019-05-11T05:45:00.283Z,6.75
2019-05-11T05:47:28.735Z,6.79
2019-05-11T05:49:59.410Z,6.82
2019-05-11T05:52:27.832Z,6.88
2019-05-11T05:54:56.270Z,6.93
2019-05-11T05:57:24.697Z,7.00
2019-05-11T05:59:53.148Z,7.07
2019-05-11T06:02:21.564Z,7.16
2019-05-11T06:04:49.992Z,7.26
2019-05-11T06:07:23.679Z,7.38
2019-05-11T06:09:52.314Z,7.50
2019-05-11T06:12:23.522Z,7.62
2019-05-11T06:14:52.531Z,7.74
2019-05-11T06:17:21.033Z,7.87
2019-05-11T06:19:49.466Z,8.00
2019-05-11T06:22:17.919Z,8.13
2019-05-11T06:24:46.345Z,8.24
2019-05-11T06:27:14.759Z,8.39
2019-05-11T06:29:43.206Z,8.52
2019-05-11T06:32:11.620Z,8.64
2019-05-11T06:34:40.039Z,8.77
2019-05-11T06:37:08.487Z,8.89
2019-05-11T06:39:36.925Z,8.48
2019-05-11T06:42:07.814Z,9.13
2019-05-11T06:44:35.518Z,9.22
2019-05-11T06:47:04.012Z,9.36
2019-05-11T06:49:32.439Z,9.45
2019-05-11T06:52:01.566Z,9.55
2019-05-11T06:54:29.981Z,9.62
2019-05-11T06:56:58.415Z,9.73
2019-05-11T06:59:27.021Z,8.34
2019-05-11T07:01:55.438Z,9.93
2019-05-11T07:04:23.880Z,10.03
2019-05-11T07:06:52.329Z,10.12
2019-05-11T07:09:20.828Z,10.19
2019-05-11T07:11:49.400Z,10.28
2019-05-11T07:14:21.040Z,10.39
2019-05-11T07:16:48.822Z,10.46
2019-05-11T07:19:17.278Z,10.56
2019-05-11T07:21:45.695Z,10.63
2019-05-11T07:24:14.152Z,10.73
2019-05-11T07:26:42.612Z,10.84
2019-05-11T07:29:11.042Z,10.95
2019-05-11T07:31:39.483Z,11.08
2019-05-11T07:34:08.223Z,11.24
2019-05-11T07:36:38.733Z,11.24
2019-05-11T07:39:08.281Z,11.30
2019-05-11T07:41:38.702Z,11.40
2019-05-11T07:44:07.042Z,11.44
2019-05-11T07:46:37.723Z,11.52
2019-05-11T07:49:08.563Z,11.51
2019-05-11T07:51:38.735Z,11.58
2019-05-11T07:54:08.474Z,11.57
2019-05-11T07:56:38.827Z,11.61
2019-05-11T07:59:08.008Z,11.60
2019-05-11T08:01:38.692Z,11.62
2019-05-11T08:04:07.802Z,11.62
2019-05-11T08:06:38.917Z,11.64
2019-05-11T08:09:08.543Z,11.67
2019-05-11T08:11:38.662Z,11.70
2019-05-11T08:14:07.759Z,11.96
2019-05-11T08:16:39.149Z,11.79
2019-05-11T08:19:10.325Z,11.87
2019-05-11T08:21:38.879Z,11.97
2019-05-11T08:24:09.161Z,12.06
2019-05-11T08:26:38.641Z,12.11
2019-05-11T08:29:08.094Z,12.22
2019-05-11T08:31:38.425Z,12.51
2019-05-11T08:34:08.878Z,12.35
2019-05-11T08:36:37.914Z,12.41
2019-05-11T08:39:08.060Z,12.43
2019-05-11T08:41:38.463Z,12.56
2019-05-11T08:44:08.884Z,12.57
2019-05-11T08:46:38.627Z,12.64
2019-05-11T08:49:08.651Z,12.66
2019-05-11T08:51:38.677Z,12.93
2019-05-11T08:54:09.028Z,12.75
2019-05-11T08:56:38.301Z,12.79
2019-05-11T08:59:07.990Z,12.93
2019-05-11T09:01:39.345Z,12.93
2019-05-11T09:04:09.116Z,13.13
2019-05-11T09:06:37.837Z,13.32
2019-05-11T09:09:08.934Z,13.64
2019-05-11T09:11:38.957Z,13.94
2019-05-11T09:14:08.377Z,14.38
2019-05-11T09:16:38.272Z,15.19
2019-05-11T09:19:08.776Z,15.03
2019-05-11T09:21:38.264Z,15.17
2019-05-11T09:24:08.476Z,15.23
2019-05-11T09:26:38.667Z,16.02
2019-05-11T09:29:05.810Z,15.63
2019-05-11T09:31:34.179Z,16.28
2019-05-11T09:34:02.653Z,15.79
2019-05-11T09:36:31.123Z,15.86
2019-05-11T09:38:59.517Z,15.99
2019-05-11T09:41:28.948Z,16.17
2019-05-11T09:43:58.650Z,16.29
2019-05-11T09:46:27.925Z,16.37
2019-05-11T09:48:58.902Z,16.54
2019-05-11T09:51:28.790Z,16.91
2019-05-11T09:53:58.757Z,16.91
2019-05-11T09:56:28.784Z,17.02
2019-05-11T09:58:58.140Z,17.38
2019-05-11T10:01:26.833Z,17.48
2019-05-11T10:03:55.326Z,17.63
2019-05-11T10:06:23.983Z,17.91
2019-05-11T10:08:52.423Z,18.18
2019-05-11T10:11:20.861Z,18.58
2019-05-11T10:13:49.293Z,18.53
2019-05-11T10:16:18.086Z,18.52
2019-05-11T10:18:49.141Z,18.67
2019-05-11T10:21:18.765Z,18.65
2019-05-11T10:23:49.051Z,18.54
2019-05-11T10:26:18.643Z,18.66
2019-05-11T10:28:48.137Z,18.66
2019-05-11T10:31:18.131Z,19.48
2019-05-11T10:33:48.928Z,19.02
2019-05-11T10:36:18.813Z,18.90
2019-05-11T10:38:48.694Z,18.81
2019-05-11T10:41:18.151Z,18.51
2019-05-11T10:43:48.993Z,18.57
2019-05-11T10:46:22.796Z,18.73
2019-05-11T10:48:48.296Z,19.52
2019-05-11T10:51:18.438Z,18.99
2019-05-11T10:53:51.637Z,18.96
2019-05-11T10:56:17.872Z,18.85
2019-05-11T10:58:48.203Z,18.54
2019-05-11T11:01:18.180Z,18.51
2019-05-11T11:03:48.367Z,18.45
2019-05-11T11:06:18.609Z,18.38
2019-05-11T11:08:48.672Z,18.86
2019-05-11T11:11:18.463Z,18.32
2019-05-11T11:13:47.981Z,18.35
2019-05-11T11:16:32.727Z,19.11
2019-05-11T11:18:48.665Z,18.96
2019-05-11T11:21:22.395Z,19.18
2019-05-11T11:23:48.074Z,19.16
2019-05-11T11:26:18.351Z,19.70
2019-05-11T11:28:47.728Z,18.80
2019-05-11T11:31:18.738Z,18.63
2019-05-11T11:33:48.987Z,18.57
2019-05-11T11:36:17.959Z,18.46
2019-05-11T11:38:47.837Z,18.38
2019-05-11T11:41:18.668Z,18.45
2019-05-11T11:43:48.355Z,18.44
2019-05-11T11:46:18.532Z,18.49
2019-05-11T11:48:48.572Z,19.05
2019-05-11T11:51:18.538Z,18.61
2019-05-11T11:53:47.758Z,18.52
2019-05-11T11:56:18.914Z,19.02
2019-05-11T11:58:48.532Z,18.43
2019-05-11T12:01:18.672Z,18.41
2019-05-11T12:03:48.872Z,18.55
2019-05-11T12:06:19.997Z,18.56
2019-05-11T12:08:46.252Z,18.54
2019-05-11T12:11:14.639Z,18.92
2019-05-11T12:13:43.088Z,18.43
2019-05-11T12:16:11.509Z,18.45
2019-05-11T12:18:39.955Z,18.47
2019-05-11T12:21:08.378Z,18.45
2019-05-11T12:23:38.114Z,18.41
2019-05-11T12:26:08.456Z,18.39
2019-05-11T12:28:38.235Z,18.45
2019-05-11T12:31:08.708Z,18.46
2019-05-11T12:33:38.544Z,18.61
2019-05-11T12:36:07.974Z,18.67
2019-05-11T12:38:38.225Z,19.25
2019-05-11T12:41:08.726Z,18.85
2019-05-11T12:43:38.198Z,18.78
2019-05-11T12:46:08.029Z,18.80
2019-05-11T12:48:37.945Z,18.80
2019-05-11T12:51:07.957Z,18.76
2019-05-11T12:53:38.524Z,18.79
2019-05-11T12:56:08.255Z,18.70
2019-05-11T12:58:36.867Z,18.98
2019-05-11T13:01:05.328Z,19.02
2019-05-11T13:03:33.747Z,19.05
2019-05-11T13:06:02.257Z,19.02
2019-05-11T13:08:30.806Z,18.79
2019-05-11T13:10:59.251Z,18.87
2019-05-11T13:13:28.541Z,18.72
2019-05-11T13:15:58.583Z,18.73
2019-05-11T13:18:27.918Z,18.67
2019-05-11T13:20:58.620Z,18.70
2019-05-11T13:23:27.845Z,18.78
2019-05-11T13:25:58.348Z,18.67
2019-05-11T13:28:28.448Z,18.14
2019-05-11T13:30:57.932Z,18.90
2019-05-11T13:33:27.831Z,18.93
2019-05-11T13:35:57.874Z,18.69
2019-05-11T13:38:28.110Z,18.91
2019-05-11T13:40:55.578Z,18.87
2019-05-11T13:43:23.950Z,19.33
2019-05-11T13:45:52.388Z,18.81
2019-05-11T13:48:20.813Z,18.77
2019-05-11T13:50:49.293Z,18.79
2019-05-11T13:53:18.371Z,18.79
2019-05-11T13:55:48.105Z,18.77
2019-05-11T13:58:19.653Z,18.81
2019-05-11T14:00:48.092Z,18.81
2019-05-11T14:03:18.422Z,18.80
2019-05-11T14:05:48.143Z,18.76
2019-05-11T14:08:18.559Z,19.13
2019-05-11T14:10:48.813Z,18.63
2019-05-11T14:13:18.162Z,18.62
2019-05-11T14:15:48.139Z,18.66
2019-05-11T14:18:18.093Z,18.72
2019-05-11T14:20:48.270Z,18.71
2019-05-11T14:23:18.292Z,18.69
2019-05-11T14:25:48.674Z,18.73
2019-05-11T14:28:17.994Z,18.67
2019-05-11T14:30:48.604Z,18.70
2019-05-11T14:33:18.027Z,18.71
2019-05-11T14:35:46.162Z,19.19
2019-05-11T14:38:14.595Z,18.88
2019-05-11T14:40:43.014Z,18.46
2019-05-11T14:43:11.693Z,18.97
2019-05-11T14:45:40.131Z,19.02
2019-05-11T14:48:22.135Z,18.95
2019-05-11T14:50:38.823Z,18.93
2019-05-11T14:53:08.671Z,18.80
2019-05-11T14:55:38.148Z,18.85
2019-05-11T14:58:08.304Z,18.78
2019-05-11T15:00:38.978Z,18.75
2019-05-11T15:03:07.870Z,19.14
2019-05-11T15:05:37.598Z,18.79
2019-05-11T15:08:08.705Z,18.82
2019-05-11T15:10:38.293Z,18.80
2019-05-11T15:13:08.072Z,18.77
2019-05-11T15:15:36.574Z,18.57
2019-05-11T15:18:05.066Z,18.44
2019-05-11T15:20:33.496Z,18.27
2019-05-11T15:23:01.947Z,18.22
2019-05-11T15:25:30.427Z,18.16
2019-05-11T15:27:58.952Z,18.13
2019-05-11T15:30:28.749Z,18.19
2019-05-11T15:32:58.447Z,18.24
2019-05-11T15:35:28.477Z,18.27
2019-05-11T15:37:58.236Z,18.31
2019-05-11T15:40:27.928Z,18.33
2019-05-11T15:42:58.547Z,18.37
2019-05-11T15:45:27.727Z,18.31
2019-05-11T15:47:58.717Z,18.39
2019-05-11T15:50:28.844Z,18.33
2019-05-11T15:52:58.201Z,18.39
2019-05-11T15:55:27.799Z,18.41
2019-05-11T15:57:56.680Z,18.58
2019-05-11T16:00:25.252Z,18.67
2019-05-11T16:02:53.696Z,18.38
2019-05-11T16:05:22.113Z,18.88
2019-05-11T16:07:50.808Z,18.94
2019-05-11T16:10:21.784Z,18.96
2019-05-11T16:12:50.236Z,18.90
2019-05-11T16:15:19.746Z,18.77
2019-05-11T16:17:49.170Z,18.72
2019-05-11T16:20:18.434Z,18.72
2019-05-11T16:22:47.963Z,18.80
2019-05-11T16:25:19.272Z,18.95
2019-05-11T16:27:46.446Z,18.94
2019-05-11T16:30:20.926Z,19.54
2019-05-11T16:32:47.856Z,19.25
2019-05-11T16:35:17.950Z,19.16
2019-05-11T16:37:48.378Z,19.07
2019-05-11T16:40:20.137Z,18.86
2019-05-11T16:42:47.857Z,18.56
2019-05-11T16:45:19.032Z,18.17
2019-05-11T16:47:48.285Z,18.04
2019-05-11T16:50:18.233Z,17.98
2019-05-11T16:52:48.320Z,17.93
2019-05-11T16:55:18.288Z,17.86
2019-05-11T16:57:48.369Z,17.70
2019-05-11T17:00:17.863Z,17.72
2019-05-11T17:02:48.973Z,17.68
2019-05-11T17:05:25.826Z,17.58
2019-05-11T17:07:48.286Z,17.89
2019-05-11T17:10:18.146Z,17.65
2019-05-11T17:12:48.413Z,17.69
2019-05-11T17:15:18.699Z,17.75
2019-05-11T17:17:48.707Z,18.07
2019-05-11T17:20:18.729Z,17.64
2019-05-11T17:22:47.923Z,17.45
2019-05-11T17:25:19.107Z,17.69
2019-05-11T17:27:48.776Z,17.13
2019-05-11T17:30:20.085Z,16.95
2019-05-11T17:32:49.522Z,16.90
2019-05-11T17:35:18.378Z,16.82
2019-05-11T17:37:48.469Z,16.82
2019-05-11T17:40:20.740Z,16.80
2019-05-11T17:42:48.218Z,16.84
2019-05-11T17:45:18.918Z,16.90
2019-05-11T17:47:47.235Z,16.90
2019-05-11T17:50:15.731Z,16.89
2019-05-11T17:52:44.192Z,16.87
2019-05-11T17:55:12.767Z,16.91
2019-05-11T17:57:42.001Z,16.84
2019-05-11T18:00:11.539Z,16.83
2019-05-11T18:02:40.333Z,16.88
2019-05-11T18:05:09.317Z,16.87
2019-05-11T18:07:38.523Z,16.75
2019-05-11T18:10:08.196Z,16.63
2019-05-11T18:12:38.995Z,16.43
2019-05-11T18:15:08.544Z,16.34
2019-05-11T18:17:37.172Z,16.18
2019-05-11T18:20:17.379Z,16.13
2019-05-11T18:22:39.333Z,15.98
2019-05-11T18:25:08.949Z,15.92
2019-05-11T18:27:38.736Z,15.77
2019-05-11T18:30:09.343Z,15.67
2019-05-11T18:32:39.597Z,15.58
2019-05-11T18:35:08.856Z,15.41
2019-05-11T18:37:38.948Z,15.24
2019-05-11T18:40:08.203Z,15.12
2019-05-11T18:42:38.316Z,14.97
2019-05-11T18:45:08.316Z,14.76
2019-05-11T18:47:39.302Z,14.99
2019-05-11T18:50:08.383Z,14.52
2019-05-11T18:52:36.810Z,14.35
2019-05-11T18:55:08.445Z,14.21
2019-05-11T18:57:38.391Z,14.13
2019-05-11T19:00:08.169Z,13.97
2019-05-11T19:02:38.502Z,14.22
2019-05-11T19:05:08.247Z,13.86
2019-05-11T19:07:38.758Z,13.67
2019-05-11T19:10:08.486Z,13.52
2019-05-11T19:12:37.642Z,13.37
2019-05-11T19:15:08.596Z,13.30
2019-05-11T19:17:38.594Z,13.25
2019-05-11T19:20:08.426Z,13.41
2019-05-11T19:22:36.578Z,13.09
2019-05-11T19:25:08.775Z,13.27
2019-05-11T19:27:36.549Z,12.89
2019-05-11T19:30:08.496Z,12.78
2019-05-11T19:32:38.301Z,12.69
2019-05-11T19:35:08.835Z,12.60
2019-05-11T19:37:38.626Z,12.57
2019-05-11T19:40:09.188Z,12.48
2019-05-11T19:42:54.185Z,12.45
2019-05-11T19:45:23.242Z,12.36
2019-05-11T19:47:51.690Z,12.28
2019-05-11T19:50:20.153Z,12.23
2019-05-11T19:52:48.527Z,12.15
2019-05-11T19:55:17.868Z,12.09
2019-05-11T19:57:48.274Z,12.03
2019-05-11T20:00:18.429Z,11.92
2019-05-11T20:02:47.391Z,11.92
2019-05-11T20:05:18.163Z,11.91
2019-05-11T20:07:48.278Z,11.83
2019-05-11T20:10:18.569Z,11.79
2019-05-11T20:12:48.354Z,11.73
2019-05-11T20:15:18.892Z,11.67
2019-05-11T20:17:48.718Z,11.61
2019-05-11T20:20:18.489Z,11.58
2019-05-11T20:22:48.353Z,11.54
2019-05-11T20:25:18.409Z,11.50
2019-05-11T20:27:48.319Z,11.38
2019-05-11T20:30:18.292Z,11.27
2019-05-11T20:32:48.337Z,11.29
2019-05-11T20:35:17.206Z,11.26
2019-05-11T20:37:45.636Z,11.17
2019-05-11T20:40:14.387Z,11.12
2019-05-11T20:42:42.829Z,11.05
2019-05-11T20:45:11.568Z,11.03
2019-05-11T20:47:39.982Z,10.98
2019-05-11T20:50:08.574Z,10.91
2019-05-11T20:52:38.970Z,10.86
2019-05-11T20:55:08.834Z,10.82
2019-05-11T20:57:39.304Z,10.82
2019-05-11T21:00:09.183Z,10.70
2019-05-11T21:02:38.222Z,10.61
2019-05-11T21:05:09.806Z,10.59
2019-05-11T21:07:38.795Z,10.59
2019-05-11T21:10:08.843Z,10.46
2019-05-11T21:12:38.616Z,10.45
2019-05-11T21:15:12.084Z,10.37
2019-05-11T21:17:40.476Z,10.33
2019-05-11T21:20:09.652Z,10.25
2019-05-11T21:22:40.625Z,10.20
2019-05-11T21:25:11.104Z,10.13
2019-05-11T21:27:39.553Z,10.09
2019-05-11T21:30:09.898Z,10.07
2019-05-11T21:32:39.574Z,9.98
2019-05-11T21:35:09.018Z,9.91
2019-05-11T21:37:39.055Z,9.84
2019-05-11T21:40:09.036Z,9.81
2019-05-11T21:42:39.084Z,9.75
2019-05-11T21:45:09.846Z,9.70
2019-05-11T21:47:39.484Z,9.67
2019-05-11T21:50:09.415Z,9.65
2019-05-11T21:52:38.693Z,9.56
2019-05-11T21:55:09.311Z,9.54
2019-05-11T21:57:38.664Z,9.48
2019-05-11T22:00:10.197Z,9.43
2019-05-11T22:02:39.237Z,9.39
2019-05-11T22:05:09.671Z,9.37
2019-05-11T22:07:38.773Z,9.33
2019-05-11T22:10:09.168Z,9.52
2019-05-11T22:12:38.693Z,9.26
2019-05-11T22:15:09.593Z,9.45
2019-05-11T22:17:39.647Z,9.20
2019-05-11T22:20:09.425Z,9.09
2019-05-11T22:22:38.865Z,9.02
2019-05-11T22:25:07.964Z,8.99
2019-05-11T22:27:38.911Z,9.21
2019-05-11T22:30:08.723Z,8.96
2019-05-11T22:32:38.372Z,8.90
2019-05-11T22:35:08.188Z,9.08
2019-05-11T22:37:38.629Z,8.83
2019-05-11T22:40:08.502Z,8.76
2019-05-11T22:42:37.299Z,8.69
2019-05-11T22:45:08.487Z,8.68
2019-05-11T22:47:39.296Z,8.67
2019-05-11T22:50:08.670Z,8.63
2019-05-11T22:52:40.408Z,8.64
2019-05-11T22:55:11.704Z,8.60
2019-05-11T22:57:38.990Z,8.54
2019-05-11T23:00:09.874Z,8.54
2019-05-11T23:02:38.512Z,8.51
2019-05-11T23:05:08.436Z,8.51
2019-05-11T23:07:41.154Z,8.49
2019-05-11T23:10:09.489Z,8.46
2019-05-11T23:12:38.511Z,8.45
2019-05-11T23:15:14.559Z,8.44
2019-05-11T23:17:43.053Z,8.42
2019-05-11T23:20:12.311Z,8.39
2019-05-11T23:22:58.069Z,8.39
2019-05-11T23:25:22.539Z,8.36
2019-05-11T23:27:50.963Z,8.32
2019-05-11T23:30:20.384Z,8.27
2019-05-11T23:32:49.776Z,8.25
2019-05-11T23:35:19.001Z,8.27
2019-05-11T23:37:49.515Z,8.21
2019-05-11T23:40:18.400Z,8.21
2019-05-11T23:42:49.083Z,8.18
2019-05-11T23:45:19.402Z,8.13
2019-05-11T23:47:48.868Z,8.11
2019-05-11T23:50:19.386Z,8.07
2019-05-11T23:53:03.960Z,8.07
2019-05-11T23:55:19.455Z,8.04
2019-05-11T23:57:49.129Z,8.00
